Terminal Aerodrome Forecast
Issued by NWS Tallahassee, FL

Home | Current Version | Previous Version | Text Only | Print | Product List | Glossary On
Versions: 1 2 3 4 5 6 7 8 9 10 11 12 13 14
000
FTUS42 KTAE 231700 RRA
TAFTLH
TAF
KTLH 231747Z 2318/2418 32005KT P6SM BKN040
     FM240100 00000KT P6SM SKC
     FM240700 00000KT 1/2SM FG VV002
     FM241400 VRB04KT P6SM SCT025=

USA.gov is the U.S. government's official web portal to all federal, state and local government web resources and services.